Time;durP1;ratioP1;P1;durP2;ratioP2;P2;SDS_P1;SDS_P2;PMS_P1;PMS_P2;Temp;Humidity;BMP_temperature;BMP_pressure;BME280_temperature;BME280_humidity;BME280_pressure;Samples;Min_cycle;Max_cycle;Signal;HPM_P1;HPM_P2
2020/12/10 00:03:38;;;;;;;11.10;5.97;;;3.40;73.90;;;;;;10034348;28;20026;-69
2020/12/10 00:08:28;;;;;;;9.57;4.30;;;3.30;73.80;;;;;;10034822;28;20042;-71
2020/12/10 00:13:19;;;;;;;9.13;4.65;;;3.30;74.00;;;;;;10035756;28;20037;-68
2020/12/10 00:18:09;;;;;;;11.68;4.50;;;3.30;73.70;;;;;;10037818;28;20026;-69
2020/12/10 00:23:00;;;;;;;10.43;4.55;;;3.20;74.10;;;;;;10035133;28;20506;-68
2020/12/10 00:27:50;;;;;;;13.05;5.93;;;3.30;74.20;;;;;;10039897;28;20087;-68
2020/12/10 00:32:41;;;;;;;10.55;4.80;;;3.40;74.20;;;;;;10031165;28;20029;-68
2020/12/10 00:37:33;;;;;;;12.40;5.13;;;3.40;74.20;;;;;;10032627;28;20116;-69
2020/12/10 00:42:24;;;;;;;7.82;3.75;;;3.50;74.40;;;;;;10041640;28;20487;-68
2020/12/10 00:47:18;;;;;;;8.43;4.75;;;3.50;74.40;;;;;;10038607;28;20050;-68
2020/12/10 00:52:09;;;;;;;6.75;3.75;;;3.60;74.20;;;;;;10036160;28;20037;-69
2020/12/10 00:57:00;;;;;;;11.05;4.45;;;3.60;74.10;;;;;;10033902;28;20038;-69
2020/12/10 01:01:50;;;;;;;10.10;4.70;;;3.70;74.00;;;;;;10034979;28;20048;-68
2020/12/10 01:06:41;;;;;;;14.73;5.07;;;3.70;74.10;;;;;;10035668;28;20029;-68
2020/12/10 01:11:32;;;;;;;9.05;4.30;;;3.70;74.20;;;;;;10037353;28;20581;-69
2020/12/10 01:16:23;;;;;;;11.18;4.55;;;3.60;74.50;;;;;;10033181;28;20469;-68
2020/12/10 01:21:14;;;;;;;10.50;5.05;;;3.50;74.60;;;;;;10033667;28;20030;-68
2020/12/10 01:26:08;;;;;;;7.63;4.10;;;3.50;74.80;;;;;;10035313;28;20052;-68
2020/12/10 01:30:59;;;;;;;9.77;4.50;;;3.50;74.50;;;;;;10031425;28;20041;-68
2020/12/10 01:35:49;;;;;;;10.88;5.43;;;3.50;74.80;;;;;;10036689;28;20457;-68
2020/12/10 01:40:40;;;;;;;10.10;4.75;;;3.40;75.00;;;;;;10035151;28;20030;-67
2020/12/10 01:45:31;;;;;;;11.07;5.63;;;3.40;75.00;;;;;;10028423;28;20025;-64
2020/12/10 01:50:22;;;;;;;12.50;4.45;;;3.40;74.90;;;;;;10034968;28;20843;-64
2020/12/10 01:55:12;;;;;;;12.65;5.15;;;3.30;75.10;;;;;;10031914;28;20037;-64
2020/12/10 02:00:04;;;;;;;15.00;6.00;;;3.20;75.00;;;;;;10036437;28;20040;-65
2020/12/10 02:04:54;;;;;;;9.93;5.28;;;3.10;75.10;;;;;;10029282;28;20046;-65
2020/12/10 02:09:45;;;;;;;13.65;5.13;;;3.10;75.10;;;;;;10032452;28;20407;-65
2020/12/10 02:14:38;;;;;;;9.93;4.85;;;3.10;75.20;;;;;;10034912;28;20033;-69
2020/12/10 02:19:28;;;;;;;11.65;5.47;;;3.00;75.20;;;;;;10034048;28;20084;-68
2020/12/10 02:24:19;;;;;;;13.88;5.18;;;3.00;75.40;;;;;;10031994;28;20344;-68
2020/12/10 02:29:10;;;;;;;12.65;5.60;;;3.00;75.60;;;;;;10031732;28;20042;-68
2020/12/10 02:34:06;;;;;;;10.55;4.90;;;3.00;76.00;;;;;;10031719;28;20037;-69
2020/12/10 02:38:57;;;;;;;14.50;5.00;;;3.00;75.90;;;;;;10029971;28;20433;-68
2020/12/10 02:43:48;;;;;;;12.02;5.85;;;3.00;76.00;;;;;;10031866;28;20048;-68
2020/12/10 02:48:38;;;;;;;8.50;4.25;;;3.00;76.30;;;;;;10028663;28;20099;-68
2020/12/10 02:53:30;;;;;;;11.95;5.55;;;3.00;76.50;;;;;;10030865;28;20559;-68
2020/12/10 02:58:22;;;;;;;10.95;4.88;;;3.00;76.70;;;;;;10033281;28;20025;-69
2020/12/10 03:03:12;;;;;;;15.88;5.97;;;3.10;76.80;;;;;;10036557;28;20037;-68
2020/12/10 03:08:04;;;;;;;12.85;5.20;;;3.10;76.80;;;;;;10036481;28;20030;-65
2020/12/10 03:12:55;;;;;;;15.07;6.25;;;3.20;77.00;;;;;;10039914;28;20033;-64
2020/12/10 03:17:45;;;;;;;14.18;5.65;;;3.20;76.70;;;;;;10037135;28;20445;-63
2020/12/10 03:22:36;;;;;;;10.95;5.10;;;3.10;77.40;;;;;;10039170;28;20030;-63
2020/12/10 03:27:26;;;;;;;13.20;5.20;;;3.10;77.60;;;;;;10038133;28;20036;-63
2020/12/10 03:32:17;;;;;;;13.68;6.25;;;3.20;77.40;;;;;;10041526;28;20507;-64
2020/12/10 03:37:07;;;;;;;11.75;6.25;;;3.20;77.40;;;;;;10036781;28;20096;-64
2020/12/10 03:41:59;;;;;;;13.70;6.20;;;3.00;77.60;;;;;;10038816;28;20054;-68
2020/12/10 03:46:50;;;;;;;12.95;5.93;;;2.90;78.10;;;;;;10038176;28;20133;-68
2020/12/10 03:51:40;;;;;;;12.70;6.45;;;3.00;78.30;;;;;;10035386;28;20033;-68
2020/12/10 03:56:31;;;;;;;13.15;6.57;;;3.00;77.90;;;;;;10037404;28;20044;-68
2020/12/10 04:01:22;;;;;;;15.55;6.10;;;3.10;78.00;;;;;;10031863;28;20037;-66
2020/12/10 04:06:14;;;;;;;13.98;6.57;;;3.10;77.70;;;;;;10029094;28;20503;-65
2020/12/10 04:11:05;;;;;;;17.05;6.53;;;3.20;78.00;;;;;;10034771;28;20032;-68
2020/12/10 04:15:56;;;;;;;14.90;6.80;;;3.30;77.60;;;;;;10034205;28;20270;-68
2020/12/10 04:20:46;;;;;;;16.63;6.97;;;3.20;77.80;;;;;;10034759;28;20028;-69
2020/12/10 04:25:37;;;;;;;13.77;6.43;;;3.30;78.70;;;;;;10036650;28;20033;-68
2020/12/10 04:30:27;;;;;;;11.73;5.70;;;3.30;77.90;;;;;;10034384;28;20029;-68
2020/12/10 04:35:18;;;;;;;13.82;6.50;;;3.20;78.20;;;;;;10062857;28;20040;-64
2020/12/10 04:40:08;;;;;;;13.48;6.65;;;3.20;78.40;;;;;;10036093;28;20030;-67
2020/12/10 04:44:59;;;;;;;13.13;6.55;;;3.30;78.00;;;;;;10028128;28;20037;-68
2020/12/10 04:49:53;;;;;;;12.32;6.38;;;3.30;78.30;;;;;;10038887;28;20431;-69
2020/12/10 04:54:45;;;;;;;13.07;5.32;;;3.40;78.00;;;;;;10036220;28;20397;-68
2020/12/10 04:59:36;;;;;;;14.00;6.30;;;3.40;78.00;;;;;;10038375;28;20419;-68
2020/12/10 05:04:26;;;;;;;16.02;7.38;;;3.40;78.30;;;;;;10036223;28;20033;-68
2020/12/10 05:09:17;;;;;;;12.93;6.68;;;3.40;78.40;;;;;;10034677;28;20045;-69
2020/12/10 05:14:07;;;;;;;14.10;7.03;;;3.40;78.40;;;;;;10037492;28;20033;-67
2020/12/10 05:19:17;;;;;;;14.05;6.35;;;3.40;78.60;;;;;;10037283;28;20033;-67
2020/12/10 05:24:20;;;;;;;12.68;6.63;;;3.50;78.70;;;;;;10036903;28;20037;-68
2020/12/10 05:29:11;;;;;;;16.98;6.97;;;3.50;78.20;;;;;;10035977;28;20033;-68
2020/12/10 05:34:02;;;;;;;15.75;6.05;;;3.50;78.50;;;;;;10029355;28;20463;-69
2020/12/10 05:39:11;;;;;;;12.45;6.57;;;3.60;78.40;;;;;;10027169;28;20026;-68
2020/12/10 05:44:19;;;;;;;14.77;5.82;;;3.60;78.40;;;;;;10034517;28;20037;-67
2020/12/10 05:49:12;;;;;;;17.45;7.25;;;3.70;78.40;;;;;;10031013;28;20197;-67
2020/12/10 05:54:08;;;;;;;16.05;7.22;;;3.60;78.40;;;;;;10035897;28;20533;-67
2020/12/10 05:59:00;;;;;;;15.35;6.70;;;3.60;78.40;;;;;;10031917;28;20073;-67
2020/12/10 06:03:52;;;;;;;16.85;7.60;;;3.60;78.60;;;;;;10031824;28;20812;-64
2020/12/10 06:08:43;;;;;;;12.48;6.43;;;3.60;78.70;;;;;;10024210;28;21035;-65
2020/12/10 06:13:34;;;;;;;19.27;6.80;;;3.60;78.70;;;;;;10028099;28;20044;-64
2020/12/10 06:18:24;;;;;;;16.58;6.85;;;3.60;78.80;;;;;;10027813;28;20117;-66
2020/12/10 06:23:25;;;;;;;12.90;5.75;;;3.60;78.90;;;;;;10031711;28;20026;-65
2020/12/10 06:28:19;;;;;;;13.27;6.88;;;3.50;79.20;;;;;;10033023;28;20021;-65
2020/12/10 06:33:10;;;;;;;18.17;6.82;;;3.40;79.30;;;;;;10031649;28;20065;-64
2020/12/10 06:38:02;;;;;;;13.50;6.53;;;3.50;79.40;;;;;;10036048;28;20060;-64
2020/12/10 06:42:53;;;;;;;13.15;6.15;;;3.50;79.30;;;;;;10040182;28;20033;-64
2020/12/10 06:47:44;;;;;;;17.35;7.50;;;3.60;79.50;;;;;;10036932;28;20045;-64
2020/12/10 06:52:36;;;;;;;13.15;6.38;;;3.80;78.80;;;;;;10036985;28;20423;-64
2020/12/10 06:57:50;;;;;;;16.60;6.97;;;3.70;79.40;;;;;;10039330;28;20030;-64
2020/12/10 07:02:41;;;;;;;13.25;7.40;;;3.90;79.10;;;;;;10053522;28;20499;-65
2020/12/10 07:07:31;;;;;;;18.70;6.45;;;3.90;79.00;;;;;;10035329;28;20025;-65
2020/12/10 07:12:27;;;;;;;14.90;6.38;;;3.90;79.20;;;;;;10038371;28;20394;-68
2020/12/10 07:17:18;;;;;;;15.50;7.22;;;3.80;80.50;;;;;;10033263;28;20483;-68
2020/12/10 07:22:09;;;;;;;13.98;7.25;;;3.70;80.20;;;;;;10039491;28;20040;-68
2020/12/10 07:27:00;;;;;;;15.98;6.85;;;3.60;80.40;;;;;;10044161;28;20036;-68
2020/12/10 07:31:57;;;;;;;15.00;6.38;;;3.60;80.80;;;;;;10041587;28;20029;-67
2020/12/10 07:36:50;;;;;;;13.93;6.53;;;3.60;80.90;;;;;;10040085;28;20049;-68
2020/12/10 07:41:40;;;;;;;13.85;6.07;;;3.70;80.50;;;;;;10041987;28;21077;-69
2020/12/10 07:46:36;;;;;;;13.30;6.18;;;3.70;80.50;;;;;;10039242;28;20417;-64
2020/12/10 07:51:26;;;;;;;14.20;5.57;;;3.60;81.10;;;;;;10041218;28;20044;-71
2020/12/10 07:56:26;;;;;;;18.33;7.00;;;3.60;81.00;;;;;;10040995;28;20053;-70
2020/12/10 08:01:19;;;;;;;17.30;7.38;;;3.70;81.00;;;;;;10041591;28;20037;-66
2020/12/10 08:06:11;;;;;;;16.55;6.63;;;3.90;80.20;;;;;;10035137;28;20404;-66
2020/12/10 08:11:09;;;;;;;16.58;6.50;;;3.90;80.20;;;;;;10038106;28;20469;-69
2020/12/10 08:16:07;;;;;;;13.98;7.10;;;3.70;80.80;;;;;;10038680;28;20030;-69
2020/12/10 08:20:59;;;;;;;14.75;5.97;;;3.70;80.90;;;;;;10039738;28;20028;-65
2020/12/10 08:26:10;;;;;;;12.90;6.43;;;3.80;80.80;;;;;;10047092;28;20466;-64
2020/12/10 08:31:00;;;;;;;13.75;5.55;;;3.80;80.80;;;;;;10039740;28;20687;-63
2020/12/10 08:35:51;;;;;;;13.68;6.28;;;3.80;81.40;;;;;;10037411;28;20033;-64
2020/12/10 08:40:42;;;;;;;15.20;6.13;;;3.80;80.80;;;;;;10035830;28;20547;-66
2020/12/10 08:45:43;;;;;;;10.88;5.90;;;3.80;80.60;;;;;;10040889;28;20045;-67
2020/12/10 08:50:33;;;;;;;11.35;5.88;;;3.90;80.40;;;;;;10043566;28;20578;-65
2020/12/10 08:56:00;;;;;;;16.50;7.05;;;3.90;80.40;;;;;;10031989;28;20075;-64
2020/12/10 09:00:52;;;;;;;11.07;5.22;;;4.10;79.90;;;;;;10028688;28;20866;-66
2020/12/10 09:05:44;;;;;;;10.55;4.85;;;4.00;79.80;;;;;;10019694;28;20074;-70
2020/12/10 09:10:37;;;;;;;13.32;6.95;;;4.10;80.00;;;;;;10004723;28;20618;-70
2020/12/10 09:15:29;;;;;;;11.75;6.75;;;4.30;79.50;;;;;;10025217;28;20144;-69
2020/12/10 09:20:21;;;;;;;13.35;6.03;;;4.30;80.30;;;;;;10019163;28;20179;-70
2020/12/10 09:25:12;;;;;;;11.95;5.63;;;4.20;79.30;;;;;;10026750;28;20487;-69
2020/12/10 09:30:07;;;;;;;13.18;5.60;;;4.40;79.30;;;;;;10024602;28;20049;-71
2020/12/10 09:35:17;;;;;;;11.07;5.85;;;4.60;78.80;;;;;;10032550;28;20079;-71
2020/12/10 09:40:11;;;;;;;16.58;6.18;;;4.60;78.70;;;;;;10036081;28;20508;-68
2020/12/10 09:45:02;;;;;;;15.88;6.20;;;4.70;78.40;;;;;;10033594;28;20091;-69
2020/12/10 09:49:52;;;;;;;13.60;6.25;;;4.80;78.30;;;;;;10038451;28;20060;-71
2020/12/10 09:55:00;;;;;;;16.73;7.13;;;4.90;78.20;;;;;;10036606;28;20021;-73
2020/12/10 09:59:50;;;;;;;12.68;5.80;;;4.90;78.30;;;;;;10035758;28;20037;-72
2020/12/10 10:04:41;;;;;;;12.02;5.43;;;4.90;78.00;;;;;;10029440;28;20439;-71
2020/12/10 10:09:32;;;;;;;14.32;5.80;;;4.90;77.70;;;;;;10059526;28;20526;-70
2020/12/10 10:14:42;;;;;;;13.43;6.03;;;4.80;78.50;;;;;;10030222;28;20069;-69
2020/12/10 10:19:33;;;;;;;11.48;5.72;;;4.90;78.10;;;;;;10030637;28;20074;-69
2020/12/10 10:24:24;;;;;;;14.18;5.93;;;5.00;77.70;;;;;;10031650;28;20464;-73
2020/12/10 10:29:21;;;;;;;14.20;5.95;;;5.10;77.70;;;;;;10041527;28;20601;-70
2020/12/10 10:34:12;;;;;;;12.80;6.63;;;5.20;77.10;;;;;;10024802;28;20053;-67
2020/12/10 10:39:03;;;;;;;11.70;6.35;;;5.10;77.20;;;;;;10030913;28;20033;-69
2020/12/10 10:43:54;;;;;;;15.23;5.72;;;5.00;77.70;;;;;;10034015;28;20457;-70
2020/12/10 10:48:45;;;;;;;14.20;6.28;;;5.10;77.40;;;;;;10035214;28;20372;-68
2020/12/10 10:53:40;;;;;;;10.75;6.55;;;5.40;76.90;;;;;;10035192;28;20041;-70
2020/12/10 10:58:31;;;;;;;11.05;6.40;;;5.40;76.60;;;;;;10034796;28;20029;-68
2020/12/10 11:03:21;;;;;;;14.15;7.15;;;5.20;76.50;;;;;;10039419;28;20033;-66
2020/12/10 11:08:12;;;;;;;10.60;5.53;;;5.20;76.90;;;;;;10037589;28;20496;-67
2020/12/10 11:13:17;;;;;;;13.65;7.07;;;5.20;76.40;;;;;;10031998;28;20044;-68
2020/12/10 11:18:07;;;;;;;12.45;6.45;;;5.30;76.40;;;;;;10037842;28;20030;-68
2020/12/10 11:22:58;;;;;;;12.82;6.55;;;5.20;76.60;;;;;;10033446;28;20128;-71
2020/12/10 11:27:48;;;;;;;12.63;6.82;;;5.30;76.40;;;;;;10039268;28;20052;-69
2020/12/10 11:32:39;;;;;;;16.27;8.82;;;5.40;76.30;;;;;;10038396;28;20104;-69
2020/12/10 11:37:30;;;;;;;15.55;6.45;;;5.60;76.00;;;;;;10038821;28;20030;-70
2020/12/10 11:42:21;;;;;;;8.93;5.07;;;5.60;75.80;;;;;;10039465;28;20030;-71
2020/12/10 11:47:12;;;;;;;11.77;5.68;;;5.50;75.30;;;;;;10037581;28;20409;-71
2020/12/10 11:52:10;;;;;;;10.15;5.85;;;5.40;76.10;;;;;;10035948;28;20034;-72
2020/12/10 11:57:02;;;;;;;12.10;5.60;;;5.60;75.80;;;;;;10032878;28;20038;-69
2020/12/10 12:01:52;;;;;;;14.40;5.97;;;5.60;75.00;;;;;;10033319;28;20103;-68
2020/12/10 12:06:45;;;;;;;11.25;5.75;;;5.50;75.10;;;;;;10036379;28;20041;-68
2020/12/10 12:11:35;;;;;;;10.70;5.47;;;5.60;75.00;;;;;;10034020;28;20046;-68
2020/12/10 12:16:26;;;;;;;8.00;4.20;;;5.50;74.60;;;;;;10037537;28;20037;-66
2020/12/10 12:21:37;;;;;;;7.88;4.25;;;5.50;74.50;;;;;;10038661;28;20084;-67
2020/12/10 12:26:33;;;;;;;11.05;4.43;;;5.40;74.60;;;;;;10032132;28;20064;-63
2020/12/10 12:31:35;;;;;;;8.13;4.03;;;5.40;74.40;;;;;;10033083;28;20424;-64
2020/12/10 12:36:27;;;;;;;7.20;4.40;;;5.40;73.80;;;;;;10037442;28;20029;-66
2020/12/10 12:41:26;;;;;;;7.78;3.78;;;5.30;74.30;;;;;;10033480;28;20798;-69
2020/12/10 12:46:17;;;;;;;7.57;4.32;;;5.40;73.90;;;;;;10033475;28;20094;-70
2020/12/10 12:51:19;;;;;;;17.98;8.25;;;5.30;73.80;;;;;;10032547;28;20053;-70
2020/12/10 12:56:21;;;;;;;18.02;8.32;;;5.20;73.70;;;;;;10031071;28;20048;-70
2020/12/10 13:01:37;;;;;;;16.05;8.05;;;5.10;74.10;;;;;;10033543;28;20029;-71
2020/12/10 13:06:49;;;;;;;15.15;7.07;;;4.90;74.30;;;;;;10031272;28;20470;-69
2020/12/10 13:11:40;;;;;;;14.93;7.88;;;4.90;74.30;;;;;;10031986;28;20511;-69
2020/12/10 13:16:30;;;;;;;15.18;7.13;;;4.80;74.60;;;;;;10031003;28;20048;-69
2020/12/10 13:21:25;;;;;;;16.98;6.53;;;4.90;74.50;;;;;;10032468;28;20569;-69
2020/12/10 13:26:23;;;;;;;18.05;7.70;;;4.90;74.40;;;;;;10033841;28;20045;-68
2020/12/10 13:31:33;;;;;;;17.75;7.22;;;5.00;74.10;;;;;;10032148;28;20427;-70
2020/12/10 13:36:25;;;;;;;17.15;7.75;;;5.00;74.30;;;;;;10035705;28;20045;-69
2020/12/10 13:41:16;;;;;;;15.20;7.57;;;5.10;74.10;;;;;;10033309;28;20429;-68
2020/12/10 13:46:06;;;;;;;17.27;6.28;;;5.10;74.20;;;;;;10030746;28;20080;-69
2020/12/10 13:50:57;;;;;;;11.68;6.18;;;5.20;74.20;;;;;;10034333;28;20602;-70
2020/12/10 13:55:49;;;;;;;10.18;5.07;;;5.20;74.40;;;;;;10032021;28;20048;-70
2020/12/10 14:00:43;;;;;;;8.77;4.43;;;5.20;74.20;;;;;;10034927;28;20622;-68
2020/12/10 14:05:33;;;;;;;10.80;4.13;;;5.20;74.20;;;;;;10033360;28;20117;-72
2020/12/10 14:10:31;;;;;;;10.40;5.38;;;5.30;74.20;;;;;;10029237;28;20421;-71
2020/12/10 14:15:48;;;;;;;8.75;4.47;;;5.30;74.20;;;;;;10038360;28;20021;-71
2020/12/10 14:20:39;;;;;;;;;;;5.30;74.00;;;;;;10034134;28;20104;-71
2020/12/10 14:25:33;;;;;;;6.68;3.70;;;5.20;73.80;;;;;;10031426;28;19917;-73
2020/12/10 14:30:24;;;;;;;9.73;4.72;;;5.10;74.20;;;;;;10033148;28;20045;-70
2020/12/10 14:35:34;;;;;;;8.43;3.88;;;5.20;73.80;;;;;;10028690;28;20149;-67
2020/12/10 14:40:25;;;;;;;4.38;2.63;;;5.10;74.10;;;;;;10037416;28;20116;-70
2020/12/10 14:45:15;;;;;;;5.47;3.40;;;5.20;73.70;;;;;;10028756;28;20411;-68
2020/12/10 14:50:06;;;;;;;6.60;3.47;;;5.20;73.50;;;;;;10025229;28;20103;-69
2020/12/10 14:54:57;;;;;;;7.88;3.75;;;5.20;73.50;;;;;;10033544;28;20407;-68
2020/12/10 14:59:48;;;;;;;5.47;3.50;;;5.20;73.50;;;;;;10042670;28;20035;-70
2020/12/10 15:04:54;;;;;;;5.18;2.95;;;5.20;73.40;;;;;;10040863;28;20033;-68
2020/12/10 15:09:45;;;;;;;4.38;2.55;;;5.20;73.10;;;;;;10037899;28;20416;-71
2020/12/10 15:14:36;;;;;;;4.28;2.50;;;5.00;72.90;;;;;;10039331;28;20519;-70
2020/12/10 15:19:28;;;;;;;6.65;2.83;;;5.10;72.90;;;;;;10042961;28;20033;-70
2020/12/10 15:24:18;;;;;;;3.25;2.20;;;5.10;72.40;;;;;;10035227;28;20033;-66
2020/12/10 15:29:09;;;;;;;5.55;2.88;;;5.00;72.50;;;;;;10037411;28;20413;-66
2020/12/10 15:34:03;;;;;;;6.63;3.05;;;5.10;72.30;;;;;;10041279;28;20071;-65
2020/12/10 15:38:57;;;;;;;4.82;2.78;;;5.10;72.10;;;;;;10039718;28;20101;-66
2020/12/10 15:44:09;;;;;;;6.03;2.55;;;5.00;72.20;;;;;;10037646;28;20466;-64
2020/12/10 15:48:59;;;;;;;5.63;2.58;;;5.10;71.90;;;;;;10035296;28;20068;-66
2020/12/10 15:53:50;;;;;;;5.32;2.45;;;5.10;71.70;;;;;;10040959;28;20040;-64
2020/12/10 15:58:41;;;;;;;5.78;2.80;;;5.00;71.80;;;;;;10037158;28;20333;-66
2020/12/10 16:03:35;;;;;;;3.53;2.35;;;4.90;71.80;;;;;;10038200;28;20033;-67
2020/12/10 16:08:25;;;;;;;5.03;3.00;;;4.80;71.70;;;;;;10037662;28;20033;-69
2020/12/10 16:13:16;;;;;;;6.05;2.92;;;4.90;71.90;;;;;;10037974;28;20073;-68
2020/12/10 16:18:07;;;;;;;5.60;2.67;;;4.90;71.50;;;;;;10034592;28;20037;-69
2020/12/10 16:22:58;;;;;;;5.28;3.60;;;5.00;71.50;;;;;;10038199;28;20029;-68
2020/12/10 16:27:48;;;;;;;5.22;3.25;;;4.90;71.50;;;;;;10037045;28;20030;-67
2020/12/10 16:32:39;;;;;;;7.20;3.88;;;5.00;71.30;;;;;;10036364;28;20061;-72
2020/12/10 16:37:29;;;;;;;6.88;3.55;;;4.90;71.30;;;;;;10039473;28;20086;-70
2020/12/10 16:42:20;;;;;;;8.55;4.18;;;5.00;71.30;;;;;;10036357;28;20408;-65
2020/12/10 16:47:10;;;;;;;8.82;3.92;;;5.00;71.40;;;;;;10036749;28;20584;-66
2020/12/10 16:52:01;;;;;;;10.10;4.75;;;5.00;71.30;;;;;;10034469;28;20030;-70
2020/12/10 16:56:52;;;;;;;7.13;3.88;;;5.00;71.30;;;;;;10034452;28;20038;-67
2020/12/10 17:01:42;;;;;;;12.45;4.93;;;4.90;71.50;;;;;;10034274;28;20076;-69
2020/12/10 17:06:35;;;;;;;11.38;4.90;;;4.80;71.40;;;;;;10036896;28;20065;-66
2020/12/10 17:11:25;;;;;;;8.45;4.10;;;4.80;71.50;;;;;;10032421;28;20033;-66
2020/12/10 17:16:16;;;;;;;6.15;3.58;;;4.90;71.30;;;;;;10033525;28;20491;-65
2020/12/10 17:21:07;;;;;;;6.85;3.28;;;4.80;70.80;;;;;;10033205;28;20087;-73
2020/12/10 17:25:57;;;;;;;4.60;3.00;;;4.80;71.10;;;;;;10035997;28;20384;-69
2020/12/10 17:30:49;;;;;;;10.07;5.55;;;4.80;71.10;;;;;;10034194;28;20091;-69
2020/12/10 17:35:40;;;;;;;8.10;4.50;;;4.80;71.00;;;;;;10030579;28;20716;-70
2020/12/10 17:40:30;;;;;;;5.97;4.38;;;4.90;70.70;;;;;;10035266;28;20029;-72
2020/12/10 17:45:21;;;;;;;9.93;5.03;;;5.00;70.60;;;;;;10041183;28;20029;-71
2020/12/10 17:50:13;;;;;;;11.32;5.50;;;5.00;70.70;;;;;;10031763;28;20132;-72
2020/12/10 17:55:04;;;;;;;6.90;4.43;;;5.00;70.60;;;;;;10034289;28;20124;-71
2020/12/10 17:59:54;;;;;;;4.72;2.95;;;5.00;70.60;;;;;;10035587;28;20033;-72
2020/12/10 18:04:45;;;;;;;5.18;2.50;;;5.00;70.40;;;;;;10033522;28;20038;-71
2020/12/10 18:09:36;;;;;;;6.60;3.10;;;5.00;70.30;;;;;;10033228;28;20128;-72
2020/12/10 18:14:26;;;;;;;7.68;3.92;;;5.00;70.20;;;;;;10034365;28;20042;-70
2020/12/10 18:19:17;;;;;;;5.05;2.97;;;5.00;70.20;;;;;;10031084;28;20039;-70
2020/12/10 18:24:08;;;;;;;4.10;3.05;;;5.00;70.00;;;;;;10027975;28;20038;-72
2020/12/10 18:28:58;;;;;;;3.63;2.58;;;5.10;69.90;;;;;;10031508;28;20103;-68
2020/12/10 18:33:49;;;;;;;6.18;3.30;;;5.00;69.70;;;;;;10043321;28;20055;-72
2020/12/10 18:38:40;;;;;;;4.72;2.60;;;4.90;69.70;;;;;;10038562;28;20504;-76
2020/12/10 18:43:31;;;;;;;6.05;3.20;;;4.80;69.70;;;;;;10039972;28;20103;-68
2020/12/10 18:48:21;;;;;;;8.85;4.13;;;4.60;69.80;;;;;;10042135;28;20578;-71
2020/12/10 18:53:12;;;;;;;6.63;3.83;;;4.60;69.90;;;;;;10034428;28;20391;-72
2020/12/10 18:58:02;;;;;;;9.43;5.00;;;4.50;69.60;;;;;;10042181;28;20120;-70
2020/12/10 19:02:56;;;;;;;11.38;5.03;;;4.50;69.70;;;;;;10037360;28;20084;-70
2020/12/10 19:07:47;;;;;;;9.20;5.18;;;4.50;69.60;;;;;;10040516;28;20087;-69
2020/12/10 19:12:39;;;;;;;10.63;5.35;;;4.40;69.70;;;;;;10038321;28;20033;-69
2020/12/10 19:17:31;;;;;;;8.73;4.95;;;4.30;69.70;;;;;;10030339;28;20393;-70
2020/12/10 19:22:22;;;;;;;7.88;5.32;;;4.30;69.90;;;;;;10037546;28;20021;-71
2020/12/10 19:27:13;;;;;;;8.05;4.38;;;4.20;69.80;;;;;;10044851;28;20075;-69
2020/12/10 19:32:05;;;;;;;7.05;4.10;;;4.20;69.90;;;;;;10037930;28;20723;-70
2020/12/10 19:36:55;;;;;;;8.05;4.63;;;4.20;70.00;;;;;;10040421;28;20113;-69
2020/12/10 19:41:46;;;;;;;8.65;4.97;;;4.10;70.20;;;;;;10037309;28;20025;-70
2020/12/10 19:46:44;;;;;;;7.38;4.03;;;4.00;70.30;;;;;;10034785;28;20061;-68
2020/12/10 19:51:35;;;;;;;8.75;4.68;;;4.00;70.60;;;;;;10038805;28;20387;-75
2020/12/10 19:56:26;;;;;;;9.25;5.10;;;4.00;70.50;;;;;;10038386;28;20033;-70
2020/12/10 20:01:16;;;;;;;9.23;4.65;;;4.00;70.70;;;;;;10037276;28;20025;-65
2020/12/10 20:06:13;;;;;;;12.27;4.65;;;4.00;70.60;;;;;;10039450;28;20034;-65
2020/12/10 20:11:04;;;;;;;6.80;4.22;;;3.90;70.70;;;;;;10034026;28;20647;-67
2020/12/10 20:15:54;;;;;;;6.43;3.45;;;3.80;71.00;;;;;;10030954;28;20057;-67
2020/12/10 20:20:45;;;;;;;5.47;3.47;;;3.80;71.00;;;;;;10040028;28;20038;-68
2020/12/10 20:25:59;;;;;;;7.97;4.55;;;3.80;71.20;;;;;;10039173;28;20324;-68
2020/12/10 20:30:54;;;;;;;6.85;3.63;;;3.70;71.40;;;;;;10037276;28;20041;-65
2020/12/10 20:35:45;;;;;;;6.13;3.53;;;3.80;71.50;;;;;;10036516;28;20500;-66
2020/12/10 20:40:36;;;;;;;9.15;4.32;;;3.80;71.70;;;;;;10038233;28;20068;-73
2020/12/10 20:45:26;;;;;;;8.88;4.97;;;3.90;71.90;;;;;;10040613;28;20037;-74
2020/12/10 20:50:20;;;;;;;9.20;6.03;;;4.10;71.80;;;;;;10035716;28;20092;-74
2020/12/10 20:55:11;;;;;;;8.23;3.85;;;4.10;72.10;;;;;;10034748;28;20083;-76
2020/12/10 21:00:02;;;;;;;8.40;4.70;;;4.10;72.30;;;;;;10035747;28;20044;-70
2020/12/10 21:04:53;;;;;;;6.18;3.97;;;4.30;72.20;;;;;;10032717;28;20500;-69
2020/12/10 21:09:44;;;;;;;9.55;4.30;;;4.20;72.60;;;;;;10033597;28;20071;-69
2020/12/10 21:14:35;;;;;;;9.82;4.82;;;4.20;72.40;;;;;;10034329;28;20488;-70
2020/12/10 21:19:25;;;;;;;9.18;4.63;;;4.20;72.30;;;;;;10036973;28;20158;-69
2020/12/10 21:24:16;;;;;;;8.90;4.97;;;4.20;72.60;;;;;;10033377;28;20037;-70
2020/12/10 21:29:06;;;;;;;10.23;5.78;;;4.10;72.60;;;;;;10035452;28;20030;-67
2020/12/10 21:33:57;;;;;;;9.43;5.18;;;4.10;72.60;;;;;;10036277;28;20037;-68
2020/12/10 21:38:48;;;;;;;10.13;4.95;;;4.00;72.80;;;;;;10032926;28;20030;-72
2020/12/10 21:43:38;;;;;;;9.10;5.13;;;3.80;73.00;;;;;;10030383;28;20117;-71
2020/12/10 21:48:29;;;;;;;8.23;4.65;;;3.80;72.90;;;;;;10029624;28;20053;-71
2020/12/10 21:53:19;;;;;;;9.13;4.63;;;3.60;73.10;;;;;;10030041;28;20026;-71
2020/12/10 21:58:10;;;;;;;9.73;4.88;;;3.60;73.40;;;;;;10034013;28;20525;-74
2020/12/10 22:03:01;;;;;;;7.72;4.43;;;3.60;73.50;;;;;;10032127;28;20414;-73
2020/12/10 22:07:51;;;;;;;8.68;5.60;;;3.50;73.40;;;;;;10030908;28;20021;-72
2020/12/10 22:12:48;;;;;;;8.10;4.45;;;3.50;73.50;;;;;;10034945;28;20399;-71
2020/12/10 22:17:39;;;;;;;7.47;4.65;;;3.40;73.50;;;;;;10037759;28;20499;-72
2020/12/10 22:22:29;;;;;;;9.90;4.60;;;3.40;73.80;;;;;;10030749;28;20087;-73
2020/12/10 22:27:20;;;;;;;13.40;6.55;;;3.30;73.90;;;;;;10034746;28;20018;-68
2020/12/10 22:32:11;;;;;;;10.82;5.18;;;3.30;74.00;;;;;;10038619;28;20028;-67
2020/12/10 22:37:01;;;;;;;6.90;3.30;;;3.30;74.10;;;;;;10037568;28;20030;-69
2020/12/10 22:41:52;;;;;;;7.88;3.33;;;3.20;74.20;;;;;;10031769;28;20100;-67
2020/12/10 22:46:43;;;;;;;4.20;3.05;;;3.20;74.20;;;;;;10035678;28;20049;-72
2020/12/10 22:51:34;;;;;;;7.40;3.47;;;3.10;74.30;;;;;;10036564;28;20036;-70
2020/12/10 22:56:24;;;;;;;4.72;3.17;;;3.10;74.60;;;;;;10037690;28;20022;-67
2020/12/10 23:01:17;;;;;;;7.35;3.75;;;3.00;74.50;;;;;;10039279;28;20137;-67
2020/12/10 23:06:08;;;;;;;5.30;3.28;;;3.00;74.60;;;;;;10041112;28;20415;-68
2020/12/10 23:11:00;;;;;;;6.15;3.67;;;3.00;74.60;;;;;;10031815;28;20079;-68
2020/12/10 23:15:52;;;;;;;6.72;3.38;;;3.00;74.50;;;;;;10042226;28;21289;-67
2020/12/10 23:20:43;;;;;;;7.13;4.28;;;3.00;74.60;;;;;;10048682;28;20045;-68
2020/12/10 23:25:33;;;;;;;7.15;3.80;;;2.90;74.80;;;;;;10041787;28;20402;-69
2020/12/10 23:30:24;;;;;;;6.07;3.60;;;2.90;75.00;;;;;;10050239;28;20037;-67
2020/12/10 23:35:14;;;;;;;5.55;2.53;;;2.80;75.10;;;;;;10042886;28;20065;-68
2020/12/10 23:40:05;;;;;;;7.65;3.13;;;2.80;75.20;;;;;;10042426;28;20033;-69
2020/12/10 23:44:56;;;;;;;6.63;2.67;;;2.90;75.10;;;;;;10044270;28;20064;-68
2020/12/10 23:49:48;;;;;;;5.53;2.80;;;2.80;75.30;;;;;;10069531;28;20055;-68
2020/12/10 23:54:38;;;;;;;6.45;3.55;;;2.80;75.30;;;;;;10047296;28;20033;-68
2020/12/10 23:59:29;;;;;;;6.47;3.53;;;2.80;75.40;;;;;;10046699;28;20033;-67
